Terminal Aerodrome Forecast
Issued by NWS Louisville, KY

Home | Current Version | Previous Version | Text Only | Print | Product List | Glossary On
Versions: 1 2 3 4 5 6 7 8 9 10 11 12 13 14 15 16
740
FTUS43 KLMK 191122
TAFSDF
TAF
KSDF 191122Z 1912/2018 30012G20KT P6SM BKN040
      TEMPO 1912/1916 BKN026
     FM191800 34011G16KT P6SM BKN035
     FM200300 34006KT P6SM SKC=

USA.gov is the U.S. government's official web portal to all federal, state and local government web resources and services.